sensor_id;sensor_type;location;lat;lon;timestamp;pressure;altitude;pressure_sealevel;temperature;humidity
43153;BME280;28756;49.064;9.290;2023-04-20T00:01:51;99125.38;;;1.87;100.00
43153;BME280;28756;49.064;9.290;2023-04-20T00:04:17;99138.75;;;1.56;100.00
43153;BME280;28756;49.064;9.290;2023-04-20T00:06:43;99128.75;;;1.40;100.00
43153;BME280;28756;49.064;9.290;2023-04-20T00:09:13;99122.13;;;1.25;100.00
43153;BME280;28756;49.064;9.290;2023-04-20T00:11:39;99118.81;;;1.20;100.00
43153;BME280;28756;49.064;9.290;2023-04-20T00:14:06;99118.06;;;1.14;100.00
43153;BME280;28756;49.064;9.290;2023-04-20T00:16:32;99116.59;;;0.99;100.00
43153;BME280;28756;49.064;9.290;2023-04-20T00:19:01;99114.03;;;0.99;100.00
43153;BME280;28756;49.064;9.290;2023-04-20T00:21:26;99114.06;;;0.96;100.00
43153;BME280;28756;49.064;9.290;2023-04-20T00:23:52;99101.41;;;0.86;100.00
43153;BME280;28756;49.064;9.290;2023-04-20T00:26:18;99100.56;;;0.84;100.00
43153;BME280;28756;49.064;9.290;2023-04-20T00:28:45;99107.53;;;0.74;100.00
43153;BME280;28756;49.064;9.290;2023-04-20T00:31:11;99100.81;;;0.67;100.00
43153;BME280;28756;49.064;9.290;2023-04-20T00:33:36;99098.28;;;0.66;100.00
43153;BME280;28756;49.064;9.290;2023-04-20T00:36:02;99097.44;;;0.65;100.00
43153;BME280;28756;49.064;9.290;2023-04-20T00:38:28;99098.22;;;0.69;100.00
43153;BME280;28756;49.064;9.290;2023-04-20T00:40:54;99088.06;;;0.62;100.00
43153;BME280;28756;49.064;9.290;2023-04-20T00:43:21;99092.44;;;0.57;100.00
43153;BME280;28756;49.064;9.290;2023-04-20T00:45:47;99087.38;;;0.53;100.00
43153;BME280;28756;49.064;9.290;2023-04-20T00:48:13;99085.69;;;0.50;100.00
43153;BME280;28756;49.064;9.290;2023-04-20T00:50:40;99085.75;;;0.45;100.00
43153;BME280;28756;49.064;9.290;2023-04-20T00:53:06;99083.22;;;0.42;100.00
43153;BME280;28756;49.064;9.290;2023-04-20T00:55:36;99073.81;;;1.04;100.00
43153;BME280;28756;49.064;9.290;2023-04-20T00:58:02;99070.09;;;1.22;100.00
43153;BME280;28756;49.064;9.290;2023-04-20T01:00:29;99067.09;;;0.97;100.00
43153;BME280;28756;49.064;9.290;2023-04-20T01:02:55;99068.19;;;0.82;100.00
43153;BME280;28756;49.064;9.290;2023-04-20T01:05:21;99064.19;;;0.63;100.00
43153;BME280;28756;49.064;9.290;2023-04-20T01:07:48;99068.63;;;0.51;100.00
43153;BME280;28756;49.064;9.290;2023-04-20T01:10:14;99067.03;;;0.40;100.00
43153;BME280;28756;49.064;9.290;2023-04-20T01:12:40;99065.38;;;0.38;100.00
43153;BME280;28756;49.064;9.290;2023-04-20T01:15:07;99058.59;;;0.35;100.00
43153;BME280;28756;49.064;9.290;2023-04-20T01:17:34;99056.09;;;0.30;100.00
43153;BME280;28756;49.064;9.290;2023-04-20T01:20:06;99057.00;;;0.28;100.00
43153;BME280;28756;49.064;9.290;2023-04-20T01:22:45;99056.97;;;0.29;100.00
43153;BME280;28756;49.064;9.290;2023-04-20T01:25:14;99057.06;;;0.20;100.00
43153;BME280;28756;49.064;9.290;2023-04-20T01:27:40;99045.22;;;0.13;100.00
43153;BME280;28756;49.064;9.290;2023-04-20T01:30:07;99052.16;;;0.05;100.00
43153;BME280;28756;49.064;9.290;2023-04-20T01:32:33;99046.22;;;0.01;100.00
43153;BME280;28756;49.064;9.290;2023-04-20T01:35:00;99050.53;;;-0.03;100.00
43153;BME280;28756;49.064;9.290;2023-04-20T01:37:26;99052.34;;;-0.09;100.00
43153;BME280;28756;49.064;9.290;2023-04-20T01:39:52;99042.13;;;-0.09;100.00
43153;BME280;28756;49.064;9.290;2023-04-20T01:42:18;99049.16;;;-0.28;100.00
43153;BME280;28756;49.064;9.290;2023-04-20T01:44:43;99037.19;;;-0.26;100.00
43153;BME280;28756;49.064;9.290;2023-04-20T01:47:09;99032.06;;;-0.25;100.00
43153;BME280;28756;49.064;9.290;2023-04-20T01:49:35;99030.31;;;-0.23;100.00
43153;BME280;28756;49.064;9.290;2023-04-20T01:52:00;99031.22;;;-0.24;100.00
43153;BME280;28756;49.064;9.290;2023-04-20T01:54:26;99025.25;;;-0.27;100.00
43153;BME280;28756;49.064;9.290;2023-04-20T01:56:52;99020.22;;;-0.32;100.00
43153;BME280;28756;49.064;9.290;2023-04-20T01:59:18;99024.47;;;-0.33;100.00
43153;BME280;28756;49.064;9.290;2023-04-20T02:01:43;99016.78;;;-0.31;100.00
43153;BME280;28756;49.064;9.290;2023-04-20T02:04:09;99023.56;;;-0.27;100.00
43153;BME280;28756;49.064;9.290;2023-04-20T02:06:35;99021.91;;;-0.29;100.00
43153;BME280;28756;49.064;9.290;2023-04-20T02:09:01;99026.16;;;-0.30;100.00
43153;BME280;28756;49.064;9.290;2023-04-20T02:11:26;99026.22;;;-0.36;100.00
43153;BME280;28756;49.064;9.290;2023-04-20T02:13:52;99017.69;;;-0.32;100.00
43153;BME280;28756;49.064;9.290;2023-04-20T02:16:18;99008.25;;;-0.30;100.00
43153;BME280;28756;49.064;9.290;2023-04-20T02:18:44;99006.53;;;-0.28;100.00
43153;BME280;28756;49.064;9.290;2023-04-20T02:21:10;98997.19;;;-0.30;100.00
43153;BME280;28756;49.064;9.290;2023-04-20T02:23:36;98991.22;;;-0.31;100.00
43153;BME280;28756;49.064;9.290;2023-04-20T02:26:02;98989.63;;;-0.38;100.00
43153;BME280;28756;49.064;9.290;2023-04-20T02:28:27;98991.34;;;-0.39;100.00
43153;BME280;28756;49.064;9.290;2023-04-20T02:30:53;98992.97;;;-0.33;100.00
43153;BME280;28756;49.064;9.290;2023-04-20T02:33:19;98980.03;;;-0.21;100.00
43153;BME280;28756;49.064;9.290;2023-04-20T02:35:46;98974.94;;;-0.21;100.00
43153;BME280;28756;49.064;9.290;2023-04-20T02:38:12;98977.53;;;-0.24;100.00
43153;BME280;28756;49.064;9.290;2023-04-20T02:40:38;98965.69;;;-0.33;100.00
43153;BME280;28756;49.064;9.290;2023-04-20T02:43:03;98976.88;;;-0.40;100.00
43153;BME280;28756;49.064;9.290;2023-04-20T02:45:29;98965.81;;;-0.42;100.00
43153;BME280;28756;49.064;9.290;2023-04-20T02:47:55;98963.19;;;-0.37;100.00
43153;BME280;28756;49.064;9.290;2023-04-20T02:50:21;98963.13;;;-0.31;100.00
43153;BME280;28756;49.064;9.290;2023-04-20T02:52:47;98970.00;;;-0.36;100.00
43153;BME280;28756;49.064;9.290;2023-04-20T02:55:13;98967.38;;;-0.28;100.00
43153;BME280;28756;49.064;9.290;2023-04-20T02:57:39;98963.91;;;-0.24;100.00
43153;BME280;28756;49.064;9.290;2023-04-20T03:00:05;98968.13;;;-0.20;100.00
43153;BME280;28756;49.064;9.290;2023-04-20T03:02:33;98958.69;;;-0.15;100.00
43153;BME280;28756;49.064;9.290;2023-04-20T03:05:01;98953.41;;;-0.04;100.00
43153;BME280;28756;49.064;9.290;2023-04-20T03:07:28;98962.78;;;-0.03;100.00
43153;BME280;28756;49.064;9.290;2023-04-20T03:09:53;98957.69;;;-0.06;100.00
43153;BME280;28756;49.064;9.290;2023-04-20T03:12:19;98949.28;;;-0.14;100.00
43153;BME280;28756;49.064;9.290;2023-04-20T03:14:46;98950.19;;;-0.19;100.00
43153;BME280;28756;49.064;9.290;2023-04-20T03:17:12;98954.47;;;-0.18;100.00
43153;BME280;28756;49.064;9.290;2023-04-20T03:19:38;98951.03;;;-0.18;100.00
43153;BME280;28756;49.064;9.290;2023-04-20T03:22:04;98944.19;;;-0.16;100.00
43153;BME280;28756;49.064;9.290;2023-04-20T03:24:29;98950.25;;;-0.23;100.00
43153;BME280;28756;49.064;9.290;2023-04-20T03:26:55;98951.22;;;-0.30;100.00
43153;BME280;28756;49.064;9.290;2023-04-20T03:29:21;98952.97;;;-0.34;100.00
43153;BME280;28756;49.064;9.290;2023-04-20T03:31:46;98950.47;;;-0.42;100.00
43153;BME280;28756;49.064;9.290;2023-04-20T03:34:12;98948.00;;;-0.48;100.00
43153;BME280;28756;49.064;9.290;2023-04-20T03:36:38;98941.25;;;-0.54;100.00
43153;BME280;28756;49.064;9.290;2023-04-20T03:39:04;98944.75;;;-0.59;100.00
43153;BME280;28756;49.064;9.290;2023-04-20T03:41:30;98943.97;;;-0.66;100.00
43153;BME280;28756;49.064;9.290;2023-04-20T03:43:56;98950.00;;;-0.75;100.00
43153;BME280;28756;49.064;9.290;2023-04-20T03:46:22;98947.41;;;-0.72;100.00
43153;BME280;28756;49.064;9.290;2023-04-20T03:48:48;98943.94;;;-0.65;100.00
43153;BME280;28756;49.064;9.290;2023-04-20T03:51:13;98953.25;;;-0.59;100.00
43153;BME280;28756;49.064;9.290;2023-04-20T03:53:39;98960.84;;;-0.54;100.00
43153;BME280;28756;49.064;9.290;2023-04-20T03:56:05;98957.47;;;-0.56;100.00
43153;BME280;28756;49.064;9.290;2023-04-20T03:58:32;98948.03;;;-0.50;100.00
43153;BME280;28756;49.064;9.290;2023-04-20T04:01:05;98952.38;;;-0.58;100.00
43153;BME280;28756;49.064;9.290;2023-04-20T04:03:34;98950.84;;;-0.71;100.00
43153;BME280;28756;49.064;9.290;2023-04-20T04:06:00;98949.13;;;-0.74;100.00
43153;BME280;28756;49.064;9.290;2023-04-20T04:08:26;98956.88;;;-0.80;100.00
43153;BME280;28756;49.064;9.290;2023-04-20T04:10:52;98949.25;;;-0.85;100.00
43153;BME280;28756;49.064;9.290;2023-04-20T04:13:17;98949.34;;;-0.92;100.00
43153;BME280;28756;49.064;9.290;2023-04-20T04:15:43;98953.53;;;-0.88;100.00
43153;BME280;28756;49.064;9.290;2023-04-20T04:18:09;98947.56;;;-0.84;100.00
43153;BME280;28756;49.064;9.290;2023-04-20T04:20:34;98949.28;;;-0.89;100.00
43153;BME280;28756;49.064;9.290;2023-04-20T04:23:00;98953.59;;;-0.91;100.00
43153;BME280;28756;49.064;9.290;2023-04-20T04:25:26;98951.06;;;-0.94;100.00
43153;BME280;28756;49.064;9.290;2023-04-20T04:27:52;98953.63;;;-0.98;100.00
43153;BME280;28756;49.064;9.290;2023-04-20T04:30:19;98954.47;;;-0.96;100.00
43153;BME280;28756;49.064;9.290;2023-04-20T04:32:45;98957.91;;;-1.01;100.00
43153;BME280;28756;49.064;9.290;2023-04-20T04:35:12;98953.69;;;-1.04;100.00
43153;BME280;28756;49.064;9.290;2023-04-20T04:37:38;98953.75;;;-1.08;100.00
43153;BME280;28756;49.064;9.290;2023-04-20T04:40:05;98960.56;;;-1.09;100.00
43153;BME280;28756;49.064;9.290;2023-04-20T04:42:35;98952.00;;;-1.05;100.00
43153;BME280;28756;49.064;9.290;2023-04-20T04:45:01;98946.84;;;-1.00;100.00
43153;BME280;28756;49.064;9.290;2023-04-20T04:47:33;98961.28;;;-0.94;100.00
43153;BME280;28756;49.064;9.290;2023-04-20T04:50:01;98962.16;;;-0.97;100.00
43153;BME280;28756;49.064;9.290;2023-04-20T04:52:27;98953.66;;;-0.99;100.00
43153;BME280;28756;49.064;9.290;2023-04-20T04:54:53;98952.78;;;-0.95;100.00
43153;BME280;28756;49.064;9.290;2023-04-20T04:57:19;98947.53;;;-0.83;100.00
43153;BME280;28756;49.064;9.290;2023-04-20T04:59:44;98939.69;;;-0.64;100.00
43153;BME280;28756;49.064;9.290;2023-04-20T05:02:10;98946.31;;;-0.49;100.00
43153;BME280;28756;49.064;9.290;2023-04-20T05:04:36;98941.63;;;-0.14;100.00
43153;BME280;28756;49.064;9.290;2023-04-20T05:07:02;98944.41;;;0.31;100.00
43153;BME280;28756;49.064;9.290;2023-04-20T05:09:27;98933.44;;;0.77;100.00
43153;BME280;28756;49.064;9.290;2023-04-20T05:11:58;98928.03;;;0.93;100.00
43153;BME280;28756;49.064;9.290;2023-04-20T05:14:26;98910.38;;;1.24;100.00
43153;BME280;28756;49.064;9.290;2023-04-20T05:16:51;98908.19;;;1.06;100.00
43153;BME280;28756;49.064;9.290;2023-04-20T05:19:17;98907.63;;;1.76;100.00
43153;BME280;28756;49.064;9.290;2023-04-20T05:21:43;98900.19;;;2.04;100.00
43153;BME280;28756;49.064;9.290;2023-04-20T05:24:09;98892.47;;;2.41;100.00
43153;BME280;28756;49.064;9.290;2023-04-20T05:26:35;98891.91;;;2.97;100.00
43153;BME280;28756;49.064;9.290;2023-04-20T05:29:00;98879.78;;;3.63;100.00
43153;BME280;28756;49.064;9.290;2023-04-20T05:31:26;98884.16;;;3.61;100.00
43153;BME280;28756;49.064;9.290;2023-04-20T05:33:53;98879.78;;;4.20;100.00
43153;BME280;28756;49.064;9.290;2023-04-20T05:36:19;98873.28;;;4.87;100.00
43153;BME280;28756;49.064;9.290;2023-04-20T05:38:45;98868.41;;;5.05;100.00
43153;BME280;28756;49.064;9.290;2023-04-20T05:41:11;98861.97;;;5.17;100.00
43153;BME280;28756;49.064;9.290;2023-04-20T05:43:36;98865.53;;;5.13;100.00
43153;BME280;28756;49.064;9.290;2023-04-20T05:46:02;98869.84;;;5.12;100.00
43153;BME280;28756;49.064;9.290;2023-04-20T05:48:28;98864.88;;;5.77;100.00
43153;BME280;28756;49.064;9.290;2023-04-20T05:50:54;98862.41;;;5.96;100.00
43153;BME280;28756;49.064;9.290;2023-04-20T05:53:20;98869.72;;;5.15;100.00
43153;BME280;28756;49.064;9.290;2023-04-20T05:55:46;98872.09;;;5.91;100.00
43153;BME280;28756;49.064;9.290;2023-04-20T05:58:12;98871.44;;;6.30;100.00
43153;BME280;28756;49.064;9.290;2023-04-20T06:00:38;98869.31;;;5.28;100.00
43153;BME280;28756;49.064;9.290;2023-04-20T06:03:03;98855.00;;;6.54;100.00
43153;BME280;28756;49.064;9.290;2023-04-20T06:05:29;98861.75;;;5.91;100.00
43153;BME280;28756;49.064;9.290;2023-04-20T06:07:55;98860.56;;;6.22;100.00
43153;BME280;28756;49.064;9.290;2023-04-20T06:10:20;98850.66;;;6.95;100.00
43153;BME280;28756;49.064;9.290;2023-04-20T06:12:46;98860.13;;;7.16;100.00
43153;BME280;28756;49.064;9.290;2023-04-20T06:15:12;98861.06;;;6.73;100.00
43153;BME280;28756;49.064;9.290;2023-04-20T06:17:38;98860.09;;;6.76;100.00
43153;BME280;28756;49.064;9.290;2023-04-20T06:20:09;98870.56;;;5.63;100.00
43153;BME280;28756;49.064;9.290;2023-04-20T06:22:40;98867.06;;;6.53;100.00
43153;BME280;28756;49.064;9.290;2023-04-20T06:25:07;98857.69;;;6.71;100.00
43153;BME280;28756;49.064;9.290;2023-04-20T06:27:33;98853.91;;;7.20;100.00
43153;BME280;28756;49.064;9.290;2023-04-20T06:29:58;98853.28;;;7.53;100.00
43153;BME280;28756;49.064;9.290;2023-04-20T06:32:24;98852.47;;;6.52;100.00
43153;BME280;28756;49.064;9.290;2023-04-20T06:34:50;98851.28;;;7.21;100.00
43153;BME280;28756;49.064;9.290;2023-04-20T06:37:17;98845.88;;;7.64;100.00
43153;BME280;28756;49.064;9.290;2023-04-20T06:39:43;98841.50;;;7.84;100.00
43153;BME280;28756;49.064;9.290;2023-04-20T06:42:08;98838.84;;;7.30;100.00
43153;BME280;28756;49.064;9.290;2023-04-20T06:44:34;98830.81;;;6.96;100.00
43153;BME280;28756;49.064;9.290;2023-04-20T06:47:00;98832.03;;;7.46;100.00
43153;BME280;28756;49.064;9.290;2023-04-20T06:49:26;98830.63;;;7.58;100.00
43153;BME280;28756;49.064;9.290;2023-04-20T06:51:51;98828.13;;;7.56;100.00
43153;BME280;28756;49.064;9.290;2023-04-20T06:54:17;98811.94;;;8.42;100.00
43153;BME280;28756;49.064;9.290;2023-04-20T06:56:43;98814.00;;;8.35;100.00
43153;BME280;28756;49.064;9.290;2023-04-20T06:59:08;98812.59;;;8.47;100.00
43153;BME280;28756;49.064;9.290;2023-04-20T07:01:34;98809.91;;;9.00;100.00
43153;BME280;28756;49.064;9.290;2023-04-20T07:04:00;98806.91;;;8.74;100.00
43153;BME280;28756;49.064;9.290;2023-04-20T07:06:25;98809.59;;;8.55;100.00
43153;BME280;28756;49.064;9.290;2023-04-20T07:08:52;98806.72;;;8.95;100.00
43153;BME280;28756;49.064;9.290;2023-04-20T07:11:18;98813.84;;;7.67;100.00
43153;BME280;28756;49.064;9.290;2023-04-20T07:13:44;98815.47;;;7.12;100.00
43153;BME280;28756;49.064;9.290;2023-04-20T07:16:10;98810.06;;;7.74;100.00
43153;BME280;28756;49.064;9.290;2023-04-20T07:18:35;98816.25;;;7.52;100.00
43153;BME280;28756;49.064;9.290;2023-04-20T07:21:01;98805.97;;;7.87;100.00
43153;BME280;28756;49.064;9.290;2023-04-20T07:23:27;98812.94;;;8.04;100.00
43153;BME280;28756;49.064;9.290;2023-04-20T07:25:53;98799.53;;;7.96;100.00
43153;BME280;28756;49.064;9.290;2023-04-20T07:28:18;98802.59;;;7.85;100.00
43153;BME280;28756;49.064;9.290;2023-04-20T07:30:44;98796.56;;;8.57;100.00
43153;BME280;28756;49.064;9.290;2023-04-20T07:33:10;98791.31;;;8.58;100.00
43153;BME280;28756;49.064;9.290;2023-04-20T07:35:36;98787.78;;;9.42;100.00
43153;BME280;28756;49.064;9.290;2023-04-20T07:38:02;98776.50;;;10.20;100.00
43153;BME280;28756;49.064;9.290;2023-04-20T07:40:28;98788.28;;;9.65;100.00
43153;BME280;28756;49.064;9.290;2023-04-20T07:42:53;98786.03;;;10.50;100.00
43153;BME280;28756;49.064;9.290;2023-04-20T07:45:20;98779.81;;;10.08;100.00
43153;BME280;28756;49.064;9.290;2023-04-20T07:47:47;98789.34;;;9.61;100.00
43153;BME280;28756;49.064;9.290;2023-04-20T07:50:15;98779.31;;;10.77;100.00
43153;BME280;28756;49.064;9.290;2023-04-20T07:52:41;98780.50;;;10.85;99.38
43153;BME280;28756;49.064;9.290;2023-04-20T07:55:09;98789.16;;;9.00;100.00
43153;BME280;28756;49.064;9.290;2023-04-20T07:57:39;98782.53;;;9.90;100.00
43153;BME280;28756;49.064;9.290;2023-04-20T08:00:05;98774.66;;;10.53;100.00
43153;BME280;28756;49.064;9.290;2023-04-20T08:02:32;98788.59;;;9.59;100.00
43153;BME280;28756;49.064;9.290;2023-04-20T08:04:58;98780.38;;;10.43;100.00
43153;BME280;28756;49.064;9.290;2023-04-20T08:07:23;98783.72;;;9.05;100.00
43153;BME280;28756;49.064;9.290;2023-04-20T08:09:49;98783.91;;;8.68;100.00
43153;BME280;28756;49.064;9.290;2023-04-20T08:12:15;98781.91;;;9.07;100.00
43153;BME280;28756;49.064;9.290;2023-04-20T08:14:40;98776.38;;;9.45;100.00
43153;BME280;28756;49.064;9.290;2023-04-20T08:17:07;98780.19;;;9.86;100.00
43153;BME280;28756;49.064;9.290;2023-04-20T08:19:32;98779.91;;;9.44;100.00
43153;BME280;28756;49.064;9.290;2023-04-20T08:21:58;98772.38;;;10.02;96.75
43153;BME280;28756;49.064;9.290;2023-04-20T08:24:24;98759.41;;;10.47;94.66
43153;BME280;28756;49.064;9.290;2023-04-20T08:26:50;98769.47;;;10.82;98.66
43153;BME280;28756;49.064;9.290;2023-04-20T08:29:16;98758.78;;;10.57;85.44
43153;BME280;28756;49.064;9.290;2023-04-20T08:31:42;98759.78;;;10.10;89.30
43153;BME280;28756;49.064;9.290;2023-04-20T08:34:08;98771.03;;;10.25;91.47
43153;BME280;28756;49.064;9.290;2023-04-20T08:36:33;98763.06;;;9.51;95.12
43153;BME280;28756;49.064;9.290;2023-04-20T08:39:08;98768.97;;;8.89;100.00
43153;BME280;28756;49.064;9.290;2023-04-20T08:41:35;98763.91;;;8.70;100.00
43153;BME280;28756;49.064;9.290;2023-04-20T08:44:01;98758.50;;;8.91;100.00
43153;BME280;28756;49.064;9.290;2023-04-20T08:46:27;98757.66;;;8.74;100.00
43153;BME280;28756;49.064;9.290;2023-04-20T08:48:53;98754.84;;;8.61;100.00
43153;BME280;28756;49.064;9.290;2023-04-20T08:51:21;98756.78;;;8.91;100.00
43153;BME280;28756;49.064;9.290;2023-04-20T08:53:47;98767.88;;;8.77;100.00
43153;BME280;28756;49.064;9.290;2023-04-20T08:56:12;98763.56;;;8.43;100.00
43153;BME280;28756;49.064;9.290;2023-04-20T08:58:38;98764.94;;;8.32;100.00
43153;BME280;28756;49.064;9.290;2023-04-20T09:01:10;98771.25;;;8.44;100.00
43153;BME280;28756;49.064;9.290;2023-04-20T09:03:40;98773.56;;;8.15;100.00
43153;BME280;28756;49.064;9.290;2023-04-20T09:06:17;98770.66;;;8.21;100.00
43153;BME280;28756;49.064;9.290;2023-04-20T09:08:44;98771.09;;;8.12;100.00
43153;BME280;28756;49.064;9.290;2023-04-20T09:11:24;98781.63;;;7.92;100.00
43153;BME280;28756;49.064;9.290;2023-04-20T09:16:26;98776.44;;;7.92;100.00
43153;BME280;28756;49.064;9.290;2023-04-20T09:18:56;98776.94;;;7.98;100.00
43153;BME280;28756;49.064;9.290;2023-04-20T09:21:24;98770.28;;;8.12;100.00
43153;BME280;28756;49.064;9.290;2023-04-20T09:24:03;98777.50;;;8.05;100.00
43153;BME280;28756;49.064;9.290;2023-04-20T09:26:33;98781.31;;;7.98;100.00
43153;BME280;28756;49.064;9.290;2023-04-20T09:29:03;98770.50;;;8.07;100.00
43153;BME280;28756;49.064;9.290;2023-04-20T09:31:40;98771.56;;;8.03;100.00
43153;BME280;28756;49.064;9.290;2023-04-20T09:34:06;98774.38;;;7.98;100.00
43153;BME280;28756;49.064;9.290;2023-04-20T09:36:43;98770.63;;;7.86;100.00
43153;BME280;28756;49.064;9.290;2023-04-20T09:39:19;98772.97;;;7.73;100.00
43153;BME280;28756;49.064;9.290;2023-04-20T09:41:46;98769.25;;;7.79;100.00
43153;BME280;28756;49.064;9.290;2023-04-20T09:44:14;98773.94;;;7.71;100.00
43153;BME280;28756;49.064;9.290;2023-04-20T09:46:40;98771.31;;;7.72;100.00
43153;BME280;28756;49.064;9.290;2023-04-20T09:49:08;98773.94;;;7.53;100.00
43153;BME280;28756;49.064;9.290;2023-04-20T09:51:37;98768.38;;;7.61;100.00
43153;BME280;28756;49.064;9.290;2023-04-20T09:54:05;98769.06;;;7.65;100.00
43153;BME280;28756;49.064;9.290;2023-04-20T09:56:33;98773.41;;;7.64;100.00
43153;BME280;28756;49.064;9.290;2023-04-20T09:59:00;98766.41;;;7.66;100.00
43153;BME280;28756;49.064;9.290;2023-04-20T10:01:32;98774.63;;;7.74;100.00
43153;BME280;28756;49.064;9.290;2023-04-20T10:04:04;98756.16;;;7.82;100.00
43153;BME280;28756;49.064;9.290;2023-04-20T10:06:33;98758.91;;;7.97;100.00
43153;BME280;28756;49.064;9.290;2023-04-20T10:09:06;98766.00;;;7.93;100.00
43153;BME280;28756;49.064;9.290;2023-04-20T10:11:38;98759.50;;;8.02;100.00
43153;BME280;28756;49.064;9.290;2023-04-20T10:14:23;98756.47;;;8.11;100.00
43153;BME280;28756;49.064;9.290;2023-04-20T10:17:06;98754.09;;;8.06;100.00
43153;BME280;28756;49.064;9.290;2023-04-20T10:19:39;98753.44;;;8.03;100.00
43153;BME280;28756;49.064;9.290;2023-04-20T10:22:07;98745.88;;;7.98;100.00
43153;BME280;28756;49.064;9.290;2023-04-20T10:24:33;98755.84;;;7.88;100.00
43153;BME280;28756;49.064;9.290;2023-04-20T10:27:00;98752.97;;;7.77;100.00
43153;BME280;28756;49.064;9.290;2023-04-20T10:29:28;98752.72;;;7.64;100.00
43153;BME280;28756;49.064;9.290;2023-04-20T10:31:56;98749.66;;;7.73;100.00
43153;BME280;28756;49.064;9.290;2023-04-20T10:34:35;98741.22;;;7.87;100.00
43153;BME280;28756;49.064;9.290;2023-04-20T10:37:12;98745.50;;;8.06;100.00
43153;BME280;28756;49.064;9.290;2023-04-20T10:39:45;98737.03;;;8.37;100.00
43153;BME280;28756;49.064;9.290;2023-04-20T10:42:12;98727.38;;;8.24;100.00
43153;BME280;28756;49.064;9.290;2023-04-20T10:44:51;98728.72;;;8.48;100.00
43153;BME280;28756;49.064;9.290;2023-04-20T10:47:29;98728.72;;;8.48;100.00
43153;BME280;28756;49.064;9.290;2023-04-20T10:50:10;98726.28;;;8.45;100.00
43153;BME280;28756;49.064;9.290;2023-04-20T10:52:38;98722.25;;;8.22;100.00
43153;BME280;28756;49.064;9.290;2023-04-20T10:55:17;98736.75;;;8.26;100.00
43153;BME280;28756;49.064;9.290;2023-04-20T10:57:46;98731.97;;;8.01;100.00
43153;BME280;28756;49.064;9.290;2023-04-20T11:00:18;98727.06;;;7.95;100.00
43153;BME280;28756;49.064;9.290;2023-04-20T11:02:57;98723.66;;;7.77;100.00
43153;BME280;28756;49.064;9.290;2023-04-20T11:05:25;98720.97;;;7.78;100.00
43153;BME280;28756;49.064;9.290;2023-04-20T11:07:57;98727.09;;;7.58;100.00
43153;BME280;28756;49.064;9.290;2023-04-20T11:10:39;98730.59;;;7.39;100.00
43153;BME280;28756;49.064;9.290;2023-04-20T11:13:05;98729.63;;;7.23;100.00
43153;BME280;28756;49.064;9.290;2023-04-20T11:15:32;98743.94;;;6.73;100.00
43153;BME280;28756;49.064;9.290;2023-04-20T11:18:09;98742.44;;;6.48;100.00
43153;BME280;28756;49.064;9.290;2023-04-20T11:20:37;98727.00;;;6.26;100.00
43153;BME280;28756;49.064;9.290;2023-04-20T11:23:13;98716.25;;;6.16;100.00
43153;BME280;28756;49.064;9.290;2023-04-20T11:25:52;98708.31;;;6.21;100.00
43153;BME280;28756;49.064;9.290;2023-04-20T11:28:18;98701.06;;;6.29;100.00
43153;BME280;28756;49.064;9.290;2023-04-20T11:30:43;98689.28;;;6.42;100.00
43153;BME280;28756;49.064;9.290;2023-04-20T11:33:10;98689.50;;;6.57;100.00
43153;BME280;28756;49.064;9.290;2023-04-20T11:35:41;98690.44;;;6.75;100.00
43153;BME280;28756;49.064;9.290;2023-04-20T11:38:07;98682.53;;;6.97;100.00
43153;BME280;28756;49.064;9.290;2023-04-20T11:40:34;98678.53;;;7.09;100.00
43153;BME280;28756;49.064;9.290;2023-04-20T11:43:00;98670.75;;;7.28;100.00
43153;BME280;28756;49.064;9.290;2023-04-20T11:45:26;98667.75;;;7.55;100.00
43153;BME280;28756;49.064;9.290;2023-04-20T11:47:55;98655.88;;;7.68;100.00
43153;BME280;28756;49.064;9.290;2023-04-20T11:50:21;98665.25;;;7.88;100.00
43153;BME280;28756;49.064;9.290;2023-04-20T11:52:47;98668.28;;;7.97;100.00
43153;BME280;28756;49.064;9.290;2023-04-20T11:55:13;98670.94;;;8.13;100.00
43153;BME280;28756;49.064;9.290;2023-04-20T11:57:39;98675.25;;;8.30;100.00
43153;BME280;28756;49.064;9.290;2023-04-20T12:00:06;98679.13;;;8.21;100.00
43153;BME280;28756;49.064;9.290;2023-04-20T12:02:32;98674.69;;;8.07;100.00
43153;BME280;28756;49.064;9.290;2023-04-20T12:04:58;98673.78;;;8.08;100.00
43153;BME280;28756;49.064;9.290;2023-04-20T12:07:26;98675.38;;;8.11;100.00
43153;BME280;28756;49.064;9.290;2023-04-20T12:09:52;98672.66;;;7.96;100.00
43153;BME280;28756;49.064;9.290;2023-04-20T12:12:18;98677.50;;;8.02;100.00
43153;BME280;28756;49.064;9.290;2023-04-20T12:14:44;98679.28;;;7.84;100.00
43153;BME280;28756;49.064;9.290;2023-04-20T12:17:10;98682.50;;;8.05;100.00
43153;BME280;28756;49.064;9.290;2023-04-20T12:19:36;98677.28;;;8.07;100.00
43153;BME280;28756;49.064;9.290;2023-04-20T12:22:02;98675.41;;;8.09;100.00
43153;BME280;28756;49.064;9.290;2023-04-20T12:24:28;98665.81;;;8.11;100.00
43153;BME280;28756;49.064;9.290;2023-04-20T12:26:54;98670.94;;;8.13;100.00
43153;BME280;28756;49.064;9.290;2023-04-20T12:29:20;98668.28;;;8.14;100.00
43153;BME280;28756;49.064;9.290;2023-04-20T12:31:48;98665.78;;;8.13;100.00
43153;BME280;28756;49.064;9.290;2023-04-20T12:34:14;98655.66;;;8.08;100.00
43153;BME280;28756;49.064;9.290;2023-04-20T12:36:40;98649.84;;;8.03;100.00
43153;BME280;28756;49.064;9.290;2023-04-20T12:39:06;98645.75;;;7.99;100.00
43153;BME280;28756;49.064;9.290;2023-04-20T12:41:32;98649.25;;;7.98;100.00
43153;BME280;28756;49.064;9.290;2023-04-20T12:43:58;98643.22;;;7.97;100.00
43153;BME280;28756;49.064;9.290;2023-04-20T12:46:24;98645.81;;;7.97;100.00
43153;BME280;28756;49.064;9.290;2023-04-20T12:48:50;98651.06;;;7.96;100.00
43153;BME280;28756;49.064;9.290;2023-04-20T12:51:15;98650.31;;;7.94;100.00
43153;BME280;28756;49.064;9.290;2023-04-20T12:53:41;98655.66;;;7.90;100.00
43153;BME280;28756;49.064;9.290;2023-04-20T12:56:07;98652.06;;;7.93;100.00
43153;BME280;28756;49.064;9.290;2023-04-20T12:58:35;98644.16;;;7.96;100.00
43153;BME280;28756;49.064;9.290;2023-04-20T13:01:02;98655.03;;;8.03;100.00